sensor_id;sensor_type;location;lat;lon;timestamp;pressure;altitude;pressure_sealevel;temperature;humidity
46942;BME280;32676;52.630;4.896;2022-10-17T00:00:10;101196.75;;;13.63;85.17
46942;BME280;32676;52.630;4.896;2022-10-17T00:02:38;101205.50;;;13.64;85.00
46942;BME280;32676;52.630;4.896;2022-10-17T00:05:05;101203.81;;;13.63;85.19
46942;BME280;32676;52.630;4.896;2022-10-17T00:07:31;101203.81;;;13.63;85.25
46942;BME280;32676;52.630;4.896;2022-10-17T00:09:58;101194.31;;;13.59;85.11
46942;BME280;32676;52.630;4.896;2022-10-17T00:12:24;101191.53;;;13.62;85.55
46942;BME280;32676;52.630;4.896;2022-10-17T00:14:51;101202.97;;;13.62;85.56
46942;BME280;32676;52.630;4.896;2022-10-17T00:17:18;101214.38;;;13.63;85.65
46942;BME280;32676;52.630;4.896;2022-10-17T00:19:45;101186.59;;;13.53;85.69
46942;BME280;32676;52.630;4.896;2022-10-17T00:22:12;101203.94;;;13.60;85.66
46942;BME280;32676;52.630;4.896;2022-10-17T00:24:38;101197.75;;;13.61;85.61
46942;BME280;32676;52.630;4.896;2022-10-17T00:27:05;101152.19;;;13.32;85.67
46942;BME280;32676;52.630;4.896;2022-10-17T00:29:32;101202.28;;;13.57;85.59
46942;BME280;32676;52.630;4.896;2022-10-17T00:31:58;101193.38;;;13.60;85.27
46942;BME280;32676;52.630;4.896;2022-10-17T00:34:28;101178.00;;;13.48;85.53
46942;BME280;32676;52.630;4.896;2022-10-17T00:36:56;101198.66;;;13.60;85.68
46942;BME280;32676;52.630;4.896;2022-10-17T00:39:23;101201.28;;;13.60;85.68
46942;BME280;32676;52.630;4.896;2022-10-17T00:41:49;101204.78;;;13.60;85.57
46942;BME280;32676;52.630;4.896;2022-10-17T00:47:28;101183.09;;;13.52;85.75
46942;BME280;32676;52.630;4.896;2022-10-17T00:49:56;101170.75;;;13.53;85.36
46942;BME280;32676;52.630;4.896;2022-10-17T00:52:26;101156.88;;;13.48;85.54
46942;BME280;32676;52.630;4.896;2022-10-17T00:54:55;101165.59;;;13.50;85.79
46942;BME280;32676;52.630;4.896;2022-10-17T00:57:24;101153.44;;;13.46;85.98
46942;BME280;32676;52.630;4.896;2022-10-17T00:59:54;101134.41;;;13.37;85.83
46942;BME280;32676;52.630;4.896;2022-10-17T01:02:22;101132.47;;;13.42;85.90
46942;BME280;32676;52.630;4.896;2022-10-17T01:04:50;101140.38;;;13.42;85.94
46942;BME280;32676;52.630;4.896;2022-10-17T01:07:18;101138.53;;;13.44;86.21
46942;BME280;32676;52.630;4.896;2022-10-17T01:09:46;101137.75;;;13.42;86.19
46942;BME280;32676;52.630;4.896;2022-10-17T01:12:18;101143.81;;;13.44;86.37
46942;BME280;32676;52.630;4.896;2022-10-17T01:14:52;101155.28;;;13.43;86.86
46942;BME280;32676;52.630;4.896;2022-10-17T01:17:28;101153.56;;;13.42;86.50
46942;BME280;32676;52.630;4.896;2022-10-17T01:20:03;101167.44;;;13.48;86.59
46942;BME280;32676;52.630;4.896;2022-10-17T01:22:39;101168.31;;;13.48;86.70
46942;BME280;32676;52.630;4.896;2022-10-17T01:25:28;101152.59;;;13.45;86.75
46942;BME280;32676;52.630;4.896;2022-10-17T01:28:15;101143.88;;;13.43;87.23
46942;BME280;32676;52.630;4.896;2022-10-17T01:31:03;101114.44;;;13.30;87.21
46942;BME280;32676;52.630;4.896;2022-10-17T01:33:43;101106.41;;;13.33;87.12
46942;BME280;32676;52.630;4.896;2022-10-17T01:36:16;101067.44;;;13.16;87.41
46942;BME280;32676;52.630;4.896;2022-10-17T01:38:48;101074.16;;;13.25;87.54
46942;BME280;32676;52.630;4.896;2022-10-17T01:41:24;101063.72;;;13.22;87.69
46942;BME280;32676;52.630;4.896;2022-10-17T01:43:58;101045.38;;;13.19;87.99
46942;BME280;32676;52.630;4.896;2022-10-17T01:46:32;101032.28;;;13.16;88.09
46942;BME280;32676;52.630;4.896;2022-10-17T01:49:02;101038.53;;;13.13;88.22
46942;BME280;32676;52.630;4.896;2022-10-17T01:51:33;101042.78;;;13.17;88.40
46942;BME280;32676;52.630;4.896;2022-10-17T01:54:06;101027.94;;;13.15;88.88
46942;BME280;32676;52.630;4.896;2022-10-17T01:56:37;101026.22;;;13.14;88.47
46942;BME280;32676;52.630;4.896;2022-10-17T01:59:10;101024.50;;;13.13;88.71
46942;BME280;32676;52.630;4.896;2022-10-17T02:01:40;101027.97;;;13.13;88.89
46942;BME280;32676;52.630;4.896;2022-10-17T02:04:08;101037.63;;;13.14;89.22
46942;BME280;32676;52.630;4.896;2022-10-17T02:06:37;101032.41;;;13.13;88.99
46942;BME280;32676;52.630;4.896;2022-10-17T02:09:15;101028.06;;;13.12;89.65
46942;BME280;32676;52.630;4.896;2022-10-17T02:11:46;101025.50;;;13.10;89.58
46942;BME280;32676;52.630;4.896;2022-10-17T02:14:22;101005.59;;;13.01;89.28
46942;BME280;32676;52.630;4.896;2022-10-17T02:17:00;101016.78;;;13.08;89.71
46942;BME280;32676;52.630;4.896;2022-10-17T02:19:41;101001.91;;;13.05;89.97
46942;BME280;32676;52.630;4.896;2022-10-17T02:22:18;100959.81;;;12.80;89.73
46942;BME280;32676;52.630;4.896;2022-10-17T02:24:52;101008.94;;;13.06;90.02
46942;BME280;32676;52.630;4.896;2022-10-17T02:27:26;101015.91;;;13.07;90.26
46942;BME280;32676;52.630;4.896;2022-10-17T02:30:02;100995.31;;;12.95;89.91
46942;BME280;32676;52.630;4.896;2022-10-17T02:32:37;101008.31;;;13.00;90.38
46942;BME280;32676;52.630;4.896;2022-10-17T02:35:08;101031.63;;;13.11;90.17
46942;BME280;32676;52.630;4.896;2022-10-17T02:37:39;101040.31;;;13.13;90.39
46942;BME280;32676;52.630;4.896;2022-10-17T02:40:09;101042.16;;;13.11;90.20
46942;BME280;32676;52.630;4.896;2022-10-17T02:42:42;101053.41;;;13.16;90.47
46942;BME280;32676;52.630;4.896;2022-10-17T02:45:10;101050.25;;;13.06;90.53
46942;BME280;32676;52.630;4.896;2022-10-17T02:47:45;101074.41;;;13.19;90.75
46942;BME280;32676;52.630;4.896;2022-10-17T02:50:13;101061.44;;;13.13;90.62
46942;BME280;32676;52.630;4.896;2022-10-17T02:52:45;101074.41;;;13.19;90.36
46942;BME280;32676;52.630;4.896;2022-10-17T02:55:17;101084.03;;;13.20;90.50
46942;BME280;32676;52.630;4.896;2022-10-17T02:57:47;101077.91;;;13.19;90.41
46942;BME280;32676;52.630;4.896;2022-10-17T03:00:16;101077.94;;;13.18;90.07
46942;BME280;32676;52.630;4.896;2022-10-17T03:02:47;101056.91;;;13.16;90.40
46942;BME280;32676;52.630;4.896;2022-10-17T03:05:16;101047.41;;;13.12;90.00
46942;BME280;32676;52.630;4.896;2022-10-17T03:07:43;101037.16;;;13.04;90.27
46942;BME280;32676;52.630;4.896;2022-10-17T03:10:09;100973.16;;;12.77;89.95
46942;BME280;32676;52.630;4.896;2022-10-17T03:12:36;101012.84;;;12.96;90.39
46942;BME280;32676;52.630;4.896;2022-10-17T03:15:03;101030.88;;;13.07;89.98
46942;BME280;32676;52.630;4.896;2022-10-17T03:17:30;101016.16;;;13.01;90.29
46942;BME280;32676;52.630;4.896;2022-10-17T03:19:58;101038.75;;;13.09;90.31
46942;BME280;32676;52.630;4.896;2022-10-17T03:22:24;101044.00;;;13.09;90.54
46942;BME280;32676;52.630;4.896;2022-10-17T03:24:51;101057.09;;;13.12;90.68
46942;BME280;32676;52.630;4.896;2022-10-17T03:27:17;101058.25;;;13.04;90.43
46942;BME280;32676;52.630;4.896;2022-10-17T03:29:44;101103.28;;;13.22;91.09
46942;BME280;32676;52.630;4.896;2022-10-17T03:32:10;101141.72;;;13.29;91.28
46942;BME280;32676;52.630;4.896;2022-10-17T03:34:37;101171.38;;;13.37;91.70
46942;BME280;32676;52.630;4.896;2022-10-17T03:37:05;101182.78;;;13.38;91.95
46942;BME280;32676;52.630;4.896;2022-10-17T03:39:31;101234.22;;;13.50;92.13
46942;BME280;32676;52.630;4.896;2022-10-17T03:41:58;101247.28;;;13.54;91.98
46942;BME280;32676;52.630;4.896;2022-10-17T03:44:24;101283.03;;;13.63;92.06
46942;BME280;32676;52.630;4.896;2022-10-17T03:46:51;101312.78;;;13.68;92.59
46942;BME280;32676;52.630;4.896;2022-10-17T03:49:17;101342.38;;;13.76;92.38
46942;BME280;32676;52.630;4.896;2022-10-17T03:51:44;101358.13;;;13.79;92.66
46942;BME280;32676;52.630;4.896;2022-10-17T03:54:12;101374.78;;;13.81;92.69
46942;BME280;32676;52.630;4.896;2022-10-17T03:56:38;101405.34;;;13.89;92.22
46942;BME280;32676;52.630;4.896;2022-10-17T03:59:05;101417.50;;;13.93;92.25
46942;BME280;32676;52.630;4.896;2022-10-17T04:01:32;101434.97;;;13.97;92.56
46942;BME280;32676;52.630;4.896;2022-10-17T04:03:58;101446.47;;;13.96;92.32
46942;BME280;32676;52.630;4.896;2022-10-17T04:06:24;101470.91;;;14.02;92.32
46942;BME280;32676;52.630;4.896;2022-10-17T04:08:51;101469.91;;;14.05;92.17
46942;BME280;32676;52.630;4.896;2022-10-17T04:11:20;101483.94;;;14.07;92.08
46942;BME280;32676;52.630;4.896;2022-10-17T04:13:50;101497.09;;;14.09;91.98
46942;BME280;32676;52.630;4.896;2022-10-17T04:16:17;101506.69;;;14.11;92.28
46942;BME280;32676;52.630;4.896;2022-10-17T04:18:44;101494.00;;;13.97;92.15
46942;BME280;32676;52.630;4.896;2022-10-17T04:21:11;101501.72;;;14.02;92.03
46942;BME280;32676;52.630;4.896;2022-10-17T04:23:38;101525.88;;;14.16;92.06
46942;BME280;32676;52.630;4.896;2022-10-17T04:26:05;101527.63;;;14.17;92.00
46942;BME280;32676;52.630;4.896;2022-10-17T04:28:33;101534.63;;;14.18;92.05
46942;BME280;32676;52.630;4.896;2022-10-17T04:31:01;101543.47;;;14.17;92.03
46942;BME280;32676;52.630;4.896;2022-10-17T04:33:28;101520.03;;;14.08;91.76
46942;BME280;32676;52.630;4.896;2022-10-17T04:35:56;101540.94;;;14.14;91.79
46942;BME280;32676;52.630;4.896;2022-10-17T04:38:23;101536.47;;;14.16;91.38
46942;BME280;32676;52.630;4.896;2022-10-17T04:40:49;101539.91;;;14.18;91.34
46942;BME280;32676;52.630;4.896;2022-10-17T04:43:16;101524.59;;;14.03;91.34
46942;BME280;32676;52.630;4.896;2022-10-17T04:45:44;101537.31;;;14.17;91.62
46942;BME280;32676;52.630;4.896;2022-10-17T04:48:11;101539.09;;;14.16;91.41
46942;BME280;32676;52.630;4.896;2022-10-17T04:50:37;101538.19;;;14.17;91.56
46942;BME280;32676;52.630;4.896;2022-10-17T04:53:04;101540.84;;;14.17;91.36
46942;BME280;32676;52.630;4.896;2022-10-17T04:55:30;101548.78;;;14.17;91.29
46942;BME280;32676;52.630;4.896;2022-10-17T04:57:57;101550.47;;;14.18;91.52
46942;BME280;32676;52.630;4.896;2022-10-17T05:00:23;101561.06;;;14.18;91.38
46942;BME280;32676;52.630;4.896;2022-10-17T05:02:52;101556.56;;;14.20;91.57
46942;BME280;32676;52.630;4.896;2022-10-17T05:05:19;101563.59;;;14.21;91.44
46942;BME280;32676;52.630;4.896;2022-10-17T05:07:45;101573.25;;;14.23;91.44
46942;BME280;32676;52.630;4.896;2022-10-17T05:10:12;101583.84;;;14.23;91.67
46942;BME280;32676;52.630;4.896;2022-10-17T05:12:38;101594.19;;;14.29;91.91
46942;BME280;32676;52.630;4.896;2022-10-17T05:15:06;101613.50;;;14.31;91.87
46942;BME280;32676;52.630;4.896;2022-10-17T05:17:33;101616.94;;;14.33;92.02
46942;BME280;32676;52.630;4.896;2022-10-17T05:20:00;101613.72;;;14.25;91.90
46942;BME280;32676;52.630;4.896;2022-10-17T05:22:27;101637.06;;;14.37;92.11
46942;BME280;32676;52.630;4.896;2022-10-17T05:24:53;101627.75;;;14.27;92.16
46942;BME280;32676;52.630;4.896;2022-10-17T05:27:20;101656.28;;;14.42;91.83
46942;BME280;32676;52.630;4.896;2022-10-17T05:29:46;101664.13;;;14.45;92.16
46942;BME280;32676;52.630;4.896;2022-10-17T05:32:13;101676.44;;;14.46;92.20
46942;BME280;32676;52.630;4.896;2022-10-17T05:34:40;101685.16;;;14.48;92.17
46942;BME280;32676;52.630;4.896;2022-10-17T05:37:07;101672.47;;;14.33;92.01
46942;BME280;32676;52.630;4.896;2022-10-17T05:39:34;101709.66;;;14.53;92.09
46942;BME280;32676;52.630;4.896;2022-10-17T05:42:00;101726.28;;;14.57;92.27
46942;BME280;32676;52.630;4.896;2022-10-17T05:44:27;101742.94;;;14.61;92.17
46942;BME280;32676;52.630;4.896;2022-10-17T05:46:53;101757.00;;;14.63;92.26
46942;BME280;32676;52.630;4.896;2022-10-17T05:49:20;101775.41;;;14.66;92.23
46942;BME280;32676;52.630;4.896;2022-10-17T05:51:46;101764.09;;;14.61;92.43
46942;BME280;32676;52.630;4.896;2022-10-17T05:54:14;101787.69;;;14.68;92.30
46942;BME280;32676;52.630;4.896;2022-10-17T05:56:41;101795.44;;;14.73;92.47
46942;BME280;32676;52.630;4.896;2022-10-17T05:59:07;101806.81;;;14.75;92.32
46942;BME280;32676;52.630;4.896;2022-10-17T06:01:33;101819.09;;;14.77;92.59
46942;BME280;32676;52.630;4.896;2022-10-17T06:04:00;101827.00;;;14.79;92.59
46942;BME280;32676;52.630;4.896;2022-10-17T06:06:26;101841.03;;;14.81;92.64
46942;BME280;32676;52.630;4.896;2022-10-17T06:08:53;101837.69;;;14.76;92.43
46942;BME280;32676;52.630;4.896;2022-10-17T06:11:21;101849.78;;;14.83;92.13
46942;BME280;32676;52.630;4.896;2022-10-17T06:13:47;101848.16;;;14.79;92.00
46942;BME280;32676;52.630;4.896;2022-10-17T06:16:13;101862.00;;;14.87;92.13
46942;BME280;32676;52.630;4.896;2022-10-17T06:18:40;101866.44;;;14.87;92.25
46942;BME280;32676;52.630;4.896;2022-10-17T06:21:09;101875.16;;;14.89;92.16
46942;BME280;32676;52.630;4.896;2022-10-17T06:23:36;101863.91;;;14.82;91.87
46942;BME280;32676;52.630;4.896;2022-10-17T06:26:05;101875.16;;;14.89;91.62
46942;BME280;32676;52.630;4.896;2022-10-17T06:28:33;101876.16;;;14.86;91.72
46942;BME280;32676;52.630;4.896;2022-10-17T06:31:03;101876.03;;;14.89;91.97
46942;BME280;32676;52.630;4.896;2022-10-17T06:33:30;101881.31;;;14.89;91.47
46942;BME280;32676;52.630;4.896;2022-10-17T06:35:56;101902.31;;;14.95;91.61
46942;BME280;32676;52.630;4.896;2022-10-17T06:38:23;101930.31;;;15.03;91.44
46942;BME280;32676;52.630;4.896;2022-10-17T06:40:50;101970.59;;;15.11;91.18
46942;BME280;32676;52.630;4.896;2022-10-17T06:43:18;102016.25;;;15.19;90.89
46942;BME280;32676;52.630;4.896;2022-10-17T06:45:46;102045.97;;;15.27;91.01
46942;BME280;32676;52.630;4.896;2022-10-17T06:48:13;102072.38;;;15.30;90.59
46942;BME280;32676;52.630;4.896;2022-10-17T06:50:39;102083.06;;;15.27;90.36
46942;BME280;32676;52.630;4.896;2022-10-17T06:53:08;102123.13;;;15.45;89.89
46942;BME280;32676;52.630;4.896;2022-10-17T06:55:34;102150.34;;;15.50;89.86
46942;BME280;32676;52.630;4.896;2022-10-17T06:58:01;102173.16;;;15.54;89.61
46942;BME280;32676;52.630;4.896;2022-10-17T07:00:27;102189.78;;;15.59;89.63
46942;BME280;32676;52.630;4.896;2022-10-17T07:02:56;102211.75;;;15.63;89.25
46942;BME280;32676;52.630;4.896;2022-10-17T07:05:22;102217.84;;;15.66;89.10
46942;BME280;32676;52.630;4.896;2022-10-17T07:07:49;102228.31;;;15.69;89.09
46942;BME280;32676;52.630;4.896;2022-10-17T07:10:15;102248.53;;;15.73;88.93
46942;BME280;32676;52.630;4.896;2022-10-17T07:12:43;102274.91;;;15.78;89.05
46942;BME280;32676;52.630;4.896;2022-10-17T07:15:10;102289.84;;;15.81;88.71
46942;BME280;32676;52.630;4.896;2022-10-17T07:17:37;102313.56;;;15.85;88.68
46942;BME280;32676;52.630;4.896;2022-10-17T07:20:08;102328.50;;;15.88;88.58
46942;BME280;32676;52.630;4.896;2022-10-17T07:22:35;102340.75;;;15.92;88.28
46942;BME280;32676;52.630;4.896;2022-10-17T07:25:01;102367.91;;;16.00;88.53
46942;BME280;32676;52.630;4.896;2022-10-17T07:27:28;102379.44;;;15.99;88.52
46942;BME280;32676;52.630;4.896;2022-10-17T07:29:54;102397.78;;;16.05;88.10
46942;BME280;32676;52.630;4.896;2022-10-17T07:32:22;102411.84;;;16.09;88.11
46942;BME280;32676;52.630;4.896;2022-10-17T07:34:48;102414.44;;;16.10;88.06
46942;BME280;32676;52.630;4.896;2022-10-17T07:37:16;102428.47;;;16.14;88.10
46942;BME280;32676;52.630;4.896;2022-10-17T07:39:43;102435.66;;;16.10;87.78
46942;BME280;32676;52.630;4.896;2022-10-17T07:42:09;102453.13;;;16.18;87.82
46942;BME280;32676;52.630;4.896;2022-10-17T07:44:36;102452.19;;;16.19;87.94
46942;BME280;32676;52.630;4.896;2022-10-17T07:47:02;102452.19;;;16.19;87.85
46942;BME280;32676;52.630;4.896;2022-10-17T07:49:29;102460.09;;;16.20;87.77
46942;BME280;32676;52.630;4.896;2022-10-17T07:51:55;102451.38;;;16.17;87.84
46942;BME280;32676;52.630;4.896;2022-10-17T07:54:24;102465.38;;;16.22;87.86
46942;BME280;32676;52.630;4.896;2022-10-17T07:56:50;102460.06;;;16.22;87.57
46942;BME280;32676;52.630;4.896;2022-10-17T07:59:17;102473.28;;;16.23;87.65
46942;BME280;32676;52.630;4.896;2022-10-17T08:01:43;102456.53;;;16.23;87.88
46942;BME280;32676;52.630;4.896;2022-10-17T08:04:10;102460.06;;;16.22;87.94
46942;BME280;32676;52.630;4.896;2022-10-17T08:06:36;102453.91;;;16.21;87.94
46942;BME280;32676;52.630;4.896;2022-10-17T08:09:03;102454.84;;;16.19;88.25
46942;BME280;32676;52.630;4.896;2022-10-17T08:11:31;102461.81;;;16.23;88.22
46942;BME280;32676;52.630;4.896;2022-10-17T08:13:57;102468.84;;;16.24;88.32
46942;BME280;32676;52.630;4.896;2022-10-17T08:16:24;102450.56;;;16.15;88.22
46942;BME280;32676;52.630;4.896;2022-10-17T08:18:50;102465.28;;;16.25;88.59
46942;BME280;32676;52.630;4.896;2022-10-17T08:21:17;102470.59;;;16.25;88.68
46942;BME280;32676;52.630;4.896;2022-10-17T08:23:43;102479.38;;;16.27;88.63
46942;BME280;32676;52.630;4.896;2022-10-17T08:26:10;102469.78;;;16.23;88.88
46942;BME280;32676;52.630;4.896;2022-10-17T08:28:42;102480.22;;;16.27;88.96
46942;BME280;32676;52.630;4.896;2022-10-17T08:31:10;102481.09;;;16.28;89.29
46942;BME280;32676;52.630;4.896;2022-10-17T08:33:37;102488.16;;;16.29;89.13
46942;BME280;32676;52.630;4.896;2022-10-17T08:36:05;102489.91;;;16.30;89.28
46942;BME280;32676;52.630;4.896;2022-10-17T08:38:33;102493.47;;;16.29;89.16
46942;BME280;32676;52.630;4.896;2022-10-17T08:41:03;102487.28;;;16.28;89.09
46942;BME280;32676;52.630;4.896;2022-10-17T08:43:46;102495.22;;;16.30;89.21
46942;BME280;32676;52.630;4.896;2022-10-17T08:46:17;102489.91;;;16.30;89.44
46942;BME280;32676;52.630;4.896;2022-10-17T08:48:45;102488.97;;;16.31;89.13
46942;BME280;32676;52.630;4.896;2022-10-17T08:51:16;102492.59;;;16.28;89.18
46942;BME280;32676;52.630;4.896;2022-10-17T08:53:48;102478.50;;;16.26;89.35
46942;BME280;32676;52.630;4.896;2022-10-17T08:56:18;102468.00;;;16.23;89.57
46942;BME280;32676;52.630;4.896;2022-10-17T08:58:46;102477.63;;;16.26;89.54
46942;BME280;32676;52.630;4.896;2022-10-17T09:01:27;102484.63;;;16.28;89.71
46942;BME280;32676;52.630;4.896;2022-10-17T09:04:14;102497.78;;;16.31;89.78
46942;BME280;32676;52.630;4.896;2022-10-17T09:06:49;102489.91;;;16.30;89.53
46942;BME280;32676;52.630;4.896;2022-10-17T09:09:27;102488.16;;;16.29;89.82
46942;BME280;32676;52.630;4.896;2022-10-17T09:12:08;102498.75;;;16.29;89.76
46942;BME280;32676;52.630;4.896;2022-10-17T09:15:02;102508.31;;;16.35;89.75
46942;BME280;32676;52.630;4.896;2022-10-17T09:17:41;102413.69;;;15.76;89.81
46942;BME280;32676;52.630;4.896;2022-10-17T09:20:16;102518.00;;;16.37;89.77
46942;BME280;32676;52.630;4.896;2022-10-17T09:22:51;102523.31;;;16.37;89.84
46942;BME280;32676;52.630;4.896;2022-10-17T09:25:20;102524.97;;;16.40;89.80
46942;BME280;32676;52.630;4.896;2022-10-17T09:27:49;102547.88;;;16.42;90.08
46942;BME280;32676;52.630;4.896;2022-10-17T09:30:35;102570.69;;;16.49;89.84
46942;BME280;32676;52.630;4.896;2022-10-17T09:33:10;102597.09;;;16.54;89.80
46942;BME280;32676;52.630;4.896;2022-10-17T09:35:37;102612.00;;;16.58;89.78
46942;BME280;32676;52.630;4.896;2022-10-17T09:38:07;102622.59;;;16.60;89.86
46942;BME280;32676;52.630;4.896;2022-10-17T09:40:39;102628.78;;;16.59;89.80
46942;BME280;32676;52.630;4.896;2022-10-17T09:43:06;102643.66;;;16.64;89.69
46942;BME280;32676;52.630;4.896;2022-10-17T09:45:38;102637.63;;;16.61;89.60
46942;BME280;32676;52.630;4.896;2022-10-17T09:48:15;102656.81;;;16.69;89.62
46942;BME280;32676;52.630;4.896;2022-10-17T09:50:45;102662.22;;;16.66;89.70
46942;BME280;32676;52.630;4.896;2022-10-17T09:53:14;102690.31;;;16.73;89.50
46942;BME280;32676;52.630;4.896;2022-10-17T09:55:46;102706.19;;;16.76;89.60
46942;BME280;32676;52.630;4.896;2022-10-17T09:58:13;102722.84;;;16.81;89.37
46942;BME280;32676;52.630;4.896;2022-10-17T10:00:42;102735.34;;;16.78;89.15
46942;BME280;32676;52.630;4.896;2022-10-17T10:03:13;102752.75;;;16.89;88.87
46942;BME280;32676;52.630;4.896;2022-10-17T10:05:41;102761.69;;;16.87;88.67
46942;BME280;32676;52.630;4.896;2022-10-17T10:08:14;102771.25;;;16.93;88.49
46942;BME280;32676;52.630;4.896;2022-10-17T10:10:41;102778.22;;;16.97;88.21
46942;BME280;32676;52.630;4.896;2022-10-17T10:13:17;102772.16;;;16.92;87.89
46942;BME280;32676;52.630;4.896;2022-10-17T10:15:47;102795.81;;;17.01;87.61
46942;BME280;32676;52.630;4.896;2022-10-17T10:18:33;102781.69;;;16.99;87.55
46942;BME280;32676;52.630;4.896;2022-10-17T10:21:09;102782.66;;;16.96;87.18
46942;BME280;32676;52.630;4.896;2022-10-17T10:23:36;102776.38;;;16.99;86.99
46942;BME280;32676;52.630;4.896;2022-10-17T10:28:55;102753.56;;;16.92;86.46
46942;BME280;32676;52.630;4.896;2022-10-17T10:31:30;102744.78;;;16.89;86.34
46942;BME280;32676;52.630;4.896;2022-10-17T10:33:58;102728.94;;;16.86;86.25
46942;BME280;32676;52.630;4.896;2022-10-17T10:36:41;102708.00;;;16.74;86.15
46942;BME280;32676;52.630;4.896;2022-10-17T10:42:06;102691.28;;;16.70;86.13
46942;BME280;32676;52.630;4.896;2022-10-17T10:44:35;102705.13;;;16.82;85.93
46942;BME280;32676;52.630;4.896;2022-10-17T10:47:20;102661.38;;;16.64;85.91
46942;BME280;32676;52.630;4.896;2022-10-17T10:49:47;102639.25;;;16.65;85.76
46942;BME280;32676;52.630;4.896;2022-10-17T10:52:23;102643.50;;;16.70;85.68
46942;BME280;32676;52.630;4.896;2022-10-17T10:55:02;102617.09;;;16.66;85.39
46942;BME280;32676;52.630;4.896;2022-10-17T10:57:32;102609.31;;;16.60;85.66
46942;BME280;32676;52.630;4.896;2022-10-17T11:00:05;102609.25;;;16.63;85.72
46942;BME280;32676;52.630;4.896;2022-10-17T11:02:42;102619.75;;;16.66;85.87
46942;BME280;32676;52.630;4.896;2022-10-17T11:05:15;102617.13;;;16.64;85.84
46942;BME280;32676;52.630;4.896;2022-10-17T11:07:50;102596.94;;;16.59;85.96
46942;BME280;32676;52.630;4.896;2022-10-17T11:10:23;102581.91;;;16.59;86.12
46942;BME280;32676;52.630;4.896;2022-10-17T11:12:56;102571.50;;;16.51;86.11
46942;BME280;32676;52.630;4.896;2022-10-17T11:15:28;102563.47;;;16.55;86.42
46942;BME280;32676;52.630;4.896;2022-10-17T11:17:59;102556.50;;;16.50;86.60
46942;BME280;32676;52.630;4.896;2022-10-17T11:20:33;102563.53;;;16.51;86.90
46942;BME280;32676;52.630;4.896;2022-10-17T11:23:11;102538.84;;;16.49;86.85
46942;BME280;32676;52.630;4.896;2022-10-17T11:25:44;102552.91;;;16.51;86.93
46942;BME280;32676;52.630;4.896;2022-10-17T11:28:12;102563.47;;;16.55;87.35
46942;BME280;32676;52.630;4.896;2022-10-17T11:30:45;102576.59;;;16.59;87.11
46942;BME280;32676;52.630;4.896;2022-10-17T11:33:17;102606.50;;;16.64;86.96
46942;BME280;32676;52.630;4.896;2022-10-17T11:35:47;102601.31;;;16.61;87.03
46942;BME280;32676;52.630;4.896;2022-10-17T11:38:25;102599.56;;;16.60;87.02
46942;BME280;32676;52.630;4.896;2022-10-17T11:40:56;102590.69;;;16.61;87.13
46942;BME280;32676;52.630;4.896;2022-10-17T11:43:26;102585.44;;;16.60;87.33
46942;BME280;32676;52.630;4.896;2022-10-17T11:45:57;102592.50;;;16.61;87.26
46942;BME280;32676;52.630;4.896;2022-10-17T11:48:29;102598.63;;;16.63;87.07
46942;BME280;32676;52.630;4.896;2022-10-17T11:51:01;102613.53;;;16.67;86.99
46942;BME280;32676;52.630;4.896;2022-10-17T11:53:38;102635.50;;;16.72;86.74
46942;BME280;32676;52.630;4.896;2022-10-17T11:56:08;102651.31;;;16.75;86.44
46942;BME280;32676;52.630;4.896;2022-10-17T11:58:40;102670.66;;;16.80;85.95
46942;BME280;32676;52.630;4.896;2022-10-17T12:01:14;102670.66;;;16.80;85.60
46942;BME280;32676;52.630;4.896;2022-10-17T12:04:03;102713.84;;;16.88;85.40
46942;BME280;32676;52.630;4.896;2022-10-17T12:06:46;102732.25;;;16.95;85.53
46942;BME280;32676;52.630;4.896;2022-10-17T12:09:19;102753.34;;;17.01;85.17
46942;BME280;32676;52.630;4.896;2022-10-17T12:11:51;102778.13;;;17.00;85.41
46942;BME280;32676;52.630;4.896;2022-10-17T12:14:40;102802.69;;;17.08;85.07
46942;BME280;32676;52.630;4.896;2022-10-17T12:17:22;102802.88;;;17.02;85.08
46942;BME280;32676;52.630;4.896;2022-10-17T12:19:52;102832.56;;;17.16;85.15
46942;BME280;32676;52.630;4.896;2022-10-17T12:22:20;102844.84;;;17.20;85.03
46942;BME280;32676;52.630;4.896;2022-10-17T12:24:59;102862.44;;;17.24;84.85
46942;BME280;32676;52.630;4.896;2022-10-17T12:27:36;102862.44;;;17.24;84.59
46942;BME280;32676;52.630;4.896;2022-10-17T12:30:13;102832.66;;;17.13;84.34
46942;BME280;32676;52.630;4.896;2022-10-17T12:32:53;102837.81;;;17.19;84.41
46942;BME280;32676;52.630;4.896;2022-10-17T12:35:24;102830.75;;;17.18;84.34
46942;BME280;32676;52.630;4.896;2022-10-17T12:38:14;102836.06;;;17.18;84.26
46942;BME280;32676;52.630;4.896;2022-10-17T12:40:50;102845.75;;;17.21;84.06
46942;BME280;32676;52.630;4.896;2022-10-17T12:43:46;102842.16;;;17.22;83.72
46942;BME280;32676;52.630;4.896;2022-10-17T12:46:44;102848.34;;;17.22;83.70
46942;BME280;32676;52.630;4.896;2022-10-17T12:52:24;102838.66;;;17.20;83.26
46942;BME280;32676;52.630;4.896;2022-10-17T12:54:59;102850.09;;;17.23;82.96
46942;BME280;32676;52.630;4.896;2022-10-17T12:57:33;102866.81;;;17.27;82.86
46942;BME280;32676;52.630;4.896;2022-10-17T13:00:05;102893.22;;;17.33;82.63
46942;BME280;32676;52.630;4.896;2022-10-17T13:02:38;102904.63;;;17.37;82.54
46942;BME280;32676;52.630;4.896;2022-10-17T13:05:18;102915.19;;;17.40;82.48
46942;BME280;32676;52.630;4.896;2022-10-17T13:07:48;102943.34;;;17.47;82.24
46942;BME280;32676;52.630;4.896;2022-10-17T13:10:19;102969.91;;;17.47;82.61
46942;BME280;32676;52.630;4.896;2022-10-17T13:12:46;102990.94;;;17.56;82.15
46942;BME280;32676;52.630;4.896;2022-10-17T13:15:16;103016.56;;;17.59;82.09
46942;BME280;32676;52.630;4.896;2022-10-17T13:17:43;102999.91;;;17.52;81.92